Airfield :
LOGIN :

Register | Disclaimer

   EN    FR    IT 

 










Legend :    VFR   Marginal VFR   IFR   Intensive IFR   Very Intensive IFR
Visi :
Ceiling :
>= 8 km
>= 3000ft
5 to 8 km
1000 to 3000 ft
1500m to 5 km
500 to 1000 ft
800 to 1500m
200 to 500 ft
< 800m
< 200 ft
Symbols :   Thunderstorms  Fog  Heavy snow  Heavy precipitations  Wind > 20 kt
SIGMETs :     Misc.  Thunderstorms  Icing  Turbulence  Mountain Waves  Volcanic Ashes






- Airport Elevation : 51 ft
- IATA code : GWT


EDXW - Westerland-Sylt Island

CURRENT METAR :
  • 061550Z 22021KT 3100 -DZ BR OVC003 08/// Q0996

EXPIRED METARs :
  • 061520Z 22020KT 3900 -DZ BR OVC004 08/// Q0996
  • 061450Z 22022KT 3100 -DZ BR OVC004 08/// Q0996
  • 061420Z 22020KT 2100 -RADZ BR BKN004 OVC007 08/// Q0997
  • 061350Z 22021KT 2900 -RADZ BR BKN004 OVC006 08/// Q0997
  • 061320Z 22022KT 3000 -DZ BR BKN004 OVC006 08/// Q0997

TAF TAF EDXW
Valid from the 06 at 15:00 until the 06 at 18:00 UTC


061400Z 0615/0618 22020KT 3500 BR OVC005
TEMPO 0615/0618 23020G30KT 2500 DZRA OVC004
PROB30
TEMPO 0615/0618 5000



MET'MAP, your aeronautical weather chart ! - Copyright ORBIFLY December 2007 - Disclaimer

ORBIFLY MET'MAP TEAM :

Programming & Development : Alexandra Zaïnal
Concept & original design : Baudouin d'Aumeries
Assistance for programming : Marc-Olivier Méhu
Technical & hardware support : Manuel Goepfert

Contact : metmap@orbifly.com




SOURCES & CREDITS :

   NOAA